Salida, CO (81227)

10:38 PM MDT on August 28, 2014 (GMT -0600)
Maysville, East Slope Monarch Pass | Change Station
CLOSE
Current Station
Personal Weather Station
Location: Salida, CO
Elevation: 8397 ft
Nearby Weather Stations

Elev 8397 ft 38.54 °N, 106.19 °W | Updated 5 seconds ago

Clear
Clear
45.8 °F
Feels Like 46 °F
N
1.0
Wind Variable Wind from NW
Gusts 2.0 mph

Today
High -- | Low -- °F
--% Chance of Precip.
Yesterday
High -- | Low -- °F
Precip. -- in
6:30 AM 7:40 PM
Waxing Crescent, 12% visible
Pressure 30.38 in
Visibility 10.0 miles
Clouds Clear
Windchill 46 °F
Dew Point 36 °F
Humidity 68%
Rainfall 0.01 in
Snow Depth 0 in
UV 0 out of 12
Pollen 9.80 out of 12
Air Quality Not available.
Flu Activity Not available.
METAR KANK 290415Z AUTO 24005KT 10SM CLR 11/05 A3038 RMK AO1 T01100053

More Conditions Fewer Conditions

Pressure 30.38 in
Visibility 10.0 miles
Clouds Clear
Windchill 46 °F
Dew Point 36 °F
Humidity 68%
Rainfall 0.01 in
Snow Depth 0 in
UV 0 out of 12
Pollen 9.80 out of 12
Air Quality Not available.
Flu Activity Not available.
METAR KANK 290415Z AUTO 24005KT 10SM CLR 11/05 A3038 RMK AO1 T01100053

More Conditions Fewer Conditions

10-Day Weather Forecast

Almanac

Astronomy

Aug. 28, 2014 Rise Set
Actual Time 6:30 AM MDT 7:40 PM MDT
Civil Twilight 6:03 AM MDT 8:07 PM MDT
Nautical Twilight 5:30 AM MDT 8:40 PM MDT
Astronomical Twilight 4:56 AM MDT 9:14 PM MDT
Moon 9:22 AM MDT (8/28) 9:08 PM MDT (8/28)
Length of Visible Light 14h 04m
Length of Day
13h 10m
Tomorrow will be 2m 22s shorter.
Waxing Crescent, 12% of the Moon is Illuminated
Aug 29
Waxing Crescent
Sep 2
First Quarter
Sep 8
Full
Sep 15
Last Quarter
Sep 24
New

Today's Extremes

State Highs State Lows

Community

WunderPhotos

Upload Photos

1,748,185 photos uploaded!

Nearby

Snow Depth

Station Depth Elevation
Porphyry Creek 0 in 10760 ft
Park Cone 0 in 9600 ft
Cochetopa Pass 0 in 10020 ft
Rough And Tumble 1 in 10360 ft
Brumley 0 in 10600 ft

Earthquake Activity

City Distance Mag. Time & Date
No recent earthquake activity has been reported nearby.
Minimum magnitude displayed is 2.5.

Coastal Water Temperatures

Place Temperature
No Stations Reporting

Nearby Weather Stations